Time;durP1;ratioP1;P1;durP2;ratioP2;P2;SDS_P1;SDS_P2;PMS_P1;PMS_P2;Temp;Humidity;BMP_temperature;BMP_pressure;BME280_temperature;BME280_humidity;BME280_pressure;Samples;Min_cycle;Max_cycle;Signal;HPM_P1;HPM_P2
2023/03/04 00:00:35;;;;;;;14.05;3.80;;;;;;;2.96;100.00;101287.03;6069010;29;20523;-85
2023/03/04 00:03:37;;;;;;;15.52;4.32;;;;;;;2.97;100.00;101284.41;6070797;29;20042;-85
2023/03/04 00:06:39;;;;;;;10.68;3.60;;;;;;;2.98;100.00;101283.53;6072876;29;20071;-85
2023/03/04 00:09:45;;;;;;;13.70;4.07;;;;;;;3.08;100.00;101293.41;6075542;29;20530;-85
2023/03/04 00:12:47;;;;;;;13.35;4.40;;;;;;;2.99;100.00;101290.31;6071588;29;20385;-85
2023/03/04 00:15:49;;;;;;;16.42;4.35;;;;;;;3.04;100.00;101287.59;6068810;29;20524;-85
2023/03/04 00:18:51;;;;;;;9.57;3.35;;;;;;;3.06;100.00;101296.03;6068610;29;20052;-85
2023/03/04 00:21:52;;;;;;;13.32;4.45;;;;;;;3.18;100.00;101289.63;6068959;29;20670;-85
2023/03/04 00:24:54;;;;;;;14.48;5.53;;;;;;;3.11;100.00;101296.72;6070283;29;20562;-85
2023/03/04 00:27:57;;;;;;;15.25;3.53;;;;;;;3.16;100.00;101288.88;6069201;29;20590;-85
2023/03/04 00:30:59;;;;;;;14.15;3.50;;;;;;;3.18;100.00;101294.75;6085701;29;20051;-85
2023/03/04 00:34:01;;;;;;;10.57;3.42;;;;;;;3.12;100.00;101290.69;6076871;29;20051;-85
2023/03/04 00:37:03;;;;;;;23.40;5.05;;;;;;;3.11;100.00;101288.22;6071214;29;20141;-85
2023/03/04 00:40:06;;;;;;;14.25;3.63;;;;;;;3.09;100.00;101284.88;6087582;29;20052;-85
2023/03/04 00:43:08;;;;;;;14.02;3.17;;;;;;;3.21;100.00;101285.25;6064124;29;20057;-85
2023/03/04 00:46:10;;;;;;;10.82;3.33;;;;;;;3.19;100.00;101274.25;6069991;29;20499;-85
2023/03/04 00:49:12;;;;;;;14.15;3.58;;;;;;;3.14;100.00;101285.53;6071347;29;20180;-85
2023/03/04 00:52:13;;;;;;;13.32;3.47;;;;;;;3.26;100.00;101281.72;6064029;29;20050;-85
2023/03/04 00:55:15;;;;;;;11.05;4.35;;;;;;;3.38;100.00;101276.13;6072005;29;20415;-85
2023/03/04 00:58:17;;;;;;;13.07;3.92;;;;;;;3.29;100.00;101274.75;6072539;29;20052;-86
2023/03/04 01:01:19;;;;;;;15.45;3.70;;;;;;;3.26;100.00;101271.47;6068951;29;20059;-85
2023/03/04 01:04:21;;;;;;;15.43;4.30;;;;;;;3.26;100.00;101268.91;6068894;29;20093;-85
2023/03/04 01:07:23;;;;;;;16.88;4.07;;;;;;;3.21;100.00;101275.03;6066355;29;20063;-85
2023/03/04 01:10:25;;;;;;;15.02;3.70;;;;;;;3.20;100.00;101265.66;6067596;29;20048;-85
2023/03/04 01:13:27;;;;;;;15.95;3.85;;;;;;;3.18;100.00;101258.94;6071625;29;20052;-85
2023/03/04 01:16:29;;;;;;;11.68;4.20;;;;;;;3.18;100.00;101258.94;6066796;29;20052;-86
2023/03/04 01:19:30;;;;;;;18.17;4.40;;;;;;;3.15;100.00;101259.06;6080839;29;20055;-85
2023/03/04 01:22:33;;;;;;;13.18;4.63;;;;;;;3.16;100.00;101256.44;6083003;29;20415;-85
2023/03/04 01:25:35;;;;;;;17.38;3.95;;;;;;;3.21;100.00;101249.44;6065874;29;20084;-85
2023/03/04 01:28:36;;;;;;;15.77;3.60;;;;;;;3.24;100.00;101251.06;6063676;29;20580;-85
2023/03/04 01:31:41;;;;;;;12.35;3.33;;;;;;;3.22;100.00;101240.88;6081628;29;20055;-85
2023/03/04 01:34:42;;;;;;;15.32;4.45;;;;;;;3.33;100.00;101244.75;6069989;29;20040;-85
2023/03/04 01:37:44;;;;;;;10.98;3.50;;;;;;;3.37;100.00;101238.63;6071622;29;20068;-85
2023/03/04 01:40:48;;;;;;;13.07;3.30;;;;;;;3.34;100.00;101231.09;6066907;29;20056;-85
2023/03/04 01:43:50;;;;;;;12.75;3.05;;;;;;;3.34;100.00;101218.28;6066001;29;20056;-85
2023/03/04 01:46:53;;;;;;;13.52;3.47;;;;;;;3.30;100.00;101220.09;6055434;29;20063;-85
2023/03/04 01:49:57;;;;;;;12.15;3.42;;;;;;;3.32;100.00;101209.84;6069279;29;20052;-85
2023/03/04 01:53:00;;;;;;;16.48;3.30;;;;;;;3.37;100.00;101207.94;6066569;29;20056;-85
2023/03/04 01:56:21;;;;;;;10.43;2.90;;;;;;;3.33;100.00;101206.38;6074519;29;20522;-85
2023/03/04 01:59:30;;;;;;;9.35;3.15;;;;;;;3.35;100.00;101197.75;6088692;29;20053;-85
2023/03/04 02:02:31;;;;;;;10.52;2.65;;;;;;;3.35;100.00;101197.75;6076411;29;20057;-85
2023/03/04 02:05:37;;;;;;;12.05;2.85;;;;;;;3.29;100.00;101190.31;6067746;29;20411;-86
2023/03/04 02:08:42;;;;;;;10.20;2.55;;;;;;;3.44;100.00;101188.91;6048258;29;20139;-85
2023/03/04 02:11:45;;;;;;;7.03;2.60;;;;;;;3.43;100.00;101190.63;6087750;29;20048;-85
2023/03/04 02:14:47;;;;;;;15.60;2.85;;;;;;;3.47;100.00;101188.78;6084644;29;20495;-85
2023/03/04 02:17:50;;;;;;;13.43;3.35;;;;;;;3.44;100.00;101186.34;6081214;29;20048;-85
2023/03/04 02:21:20;;;;;;;9.40;2.30;;;;;;;3.45;100.00;101180.31;6067634;29;20056;-86
2023/03/04 02:24:45;;;;;;;11.10;2.77;;;;;;;3.38;100.00;101168.66;6081352;29;20139;-85
2023/03/04 02:27:47;;;;;;;13.02;2.25;;;;;;;3.33;100.00;101166.28;6070935;29;20435;-85
2023/03/04 02:30:49;;;;;;;8.60;2.38;;;;;;;3.52;100.00;101168.13;6074617;29;20055;-85
2023/03/04 02:33:53;;;;;;;12.50;2.47;;;;;;;3.43;100.00;101161.66;6075082;29;20040;-85
2023/03/04 02:36:56;;;;;;;7.55;2.42;;;;;;;3.47;100.00;101167.47;6071865;29;20052;-85
2023/03/04 02:39:58;;;;;;;15.98;3.20;;;;;;;3.61;100.00;101162.66;6081401;29;20185;-85
2023/03/04 02:43:01;;;;;;;13.65;3.55;;;;;;;3.55;100.00;101161.19;6064824;29;20040;-85
2023/03/04 02:46:03;;;;;;;13.43;2.35;;;;;;;3.53;100.00;101160.41;6073942;29;20049;-85
2023/03/04 02:49:04;;;;;;;12.55;1.83;;;;;;;3.52;100.00;101160.44;6087508;29;20543;-85
2023/03/04 02:52:13;;;;;;;8.98;1.77;;;;;;;3.48;100.00;101158.88;6081798;29;20153;-85
2023/03/04 02:55:15;;;;;;;9.02;2.33;;;;;;;3.55;100.00;101155.19;6063268;29;20439;-85
2023/03/04 02:58:17;;;;;;;12.00;2.60;;;;;;;3.50;100.00;101160.50;6078851;29;20611;-85
2023/03/04 03:01:20;;;;;;;9.98;2.03;;;;;;;3.53;100.00;101162.97;6078286;29;20049;-85
2023/03/04 03:04:24;;;;;;;10.57;2.30;;;;;;;3.59;100.00;101165.25;6067303;29;20487;-85
2023/03/04 03:07:27;;;;;;;13.48;2.60;;;;;;;3.58;100.00;101155.09;6065373;29;20049;-85
2023/03/04 03:10:30;;;;;;;8.80;2.13;;;;;;;3.62;100.00;101157.44;6068672;29;20055;-85
2023/03/04 03:13:32;;;;;;;9.15;2.08;;;;;;;3.61;100.00;101155.78;6085783;29;20075;-85
2023/03/04 03:16:34;;;;;;;4.53;1.67;;;;;;;3.52;100.00;101148.47;6085437;29;20131;-86
2023/03/04 03:19:38;;;;;;;9.98;1.85;;;;;;;3.69;100.00;101158.03;6099222;29;20076;-85
2023/03/04 03:22:41;;;;;;;10.27;2.00;;;;;;;3.63;100.00;101148.91;6057955;29;20045;-85
2023/03/04 03:25:43;;;;;;;7.97;1.55;;;;;;;3.70;100.00;101152.03;6082419;29;20579;-85
2023/03/04 03:28:45;;;;;;;11.02;2.05;;;;;;;3.66;100.00;101147.94;6066571;29;20067;-85
2023/03/04 03:31:47;;;;;;;9.15;2.08;;;;;;;3.65;100.00;101146.25;6071623;29;20044;-85
2023/03/04 03:34:49;;;;;;;7.50;2.10;;;;;;;3.64;100.00;101150.53;6079157;29;20040;-85
2023/03/04 03:37:52;;;;;;;12.98;2.53;;;;;;;3.60;100.00;101141.34;6069895;29;20037;-85
2023/03/04 03:40:54;;;;;;;9.02;2.03;;;;;;;3.53;100.00;101136.50;6077013;29;20423;-85
2023/03/04 03:43:56;;;;;;;8.85;2.25;;;;;;;3.53;100.00;101141.63;6089180;29;20574;-85
2023/03/04 03:46:57;;;;;;;8.65;1.80;;;;;;;3.57;100.00;101136.31;6062334;29;20429;-85
2023/03/04 03:49:59;;;;;;;4.88;1.35;;;;;;;3.50;100.00;101140.00;6067101;29;20124;-85
2023/03/04 03:53:01;;;;;;;7.30;1.83;;;;;;;3.49;100.00;101138.38;6077432;29;20650;-85
2023/03/04 03:56:03;;;;;;;7.00;2.05;;;;;;;3.53;100.00;101142.47;6079377;29;20073;-85
2023/03/04 03:59:05;;;;;;;7.18;1.60;;;;;;;3.55;100.00;101130.47;6068100;29;20044;-85
2023/03/04 04:02:06;;;;;;;7.88;1.60;;;;;;;3.54;100.00;101136.44;6079935;29;20079;-85
2023/03/04 04:05:09;;;;;;;5.32;1.45;;;;;;;3.59;100.00;101139.66;6069759;29;20522;-85
2023/03/04 04:08:16;;;;;;;9.73;2.08;;;;;;;3.53;100.00;101127.13;6069640;29;20048;-85
2023/03/04 04:11:18;;;;;;;13.20;2.25;;;;;;;3.51;100.00;101128.06;6078354;29;20059;-85
2023/03/04 04:14:19;;;;;;;6.88;2.45;;;;;;;3.48;100.00;101123.91;6079405;29;20191;-85
2023/03/04 04:17:21;;;;;;;9.07;2.05;;;;;;;3.48;100.00;101126.47;6068207;29;20511;-85
2023/03/04 04:20:23;;;;;;;10.10;2.15;;;;;;;3.40;100.00;101123.38;6075811;29;20065;-85
2023/03/04 04:23:26;;;;;;;9.20;2.97;;;;;;;3.44;100.00;101120.63;6068484;29;20045;-85
2023/03/04 04:26:28;;;;;;;5.63;1.65;;;;;;;3.41;100.00;101125.03;6069797;29;20495;-85
2023/03/04 04:29:30;;;;;;;8.35;1.80;;;;;;;3.51;100.00;101133.19;6068891;29;20045;-85
2023/03/04 04:32:32;;;;;;;3.13;1.38;;;;;;;3.54;100.00;101118.53;6084053;29;20823;-85
2023/03/04 04:35:37;;;;;;;7.40;2.10;;;;;;;3.42;100.00;101121.59;6072755;29;20509;-85
2023/03/04 04:38:40;;;;;;;10.00;2.20;;;;;;;3.38;100.00;101112.34;6089104;29;20051;-85
2023/03/04 04:41:45;;;;;;;9.85;2.15;;;;;;;3.34;100.00;101128.75;6069984;29;20392;-85
2023/03/04 04:44:47;;;;;;;11.68;2.90;;;;;;;3.30;100.00;101112.66;6076583;29;20054;-85
2023/03/04 04:47:48;;;;;;;10.10;2.33;;;;;;;3.31;100.00;101108.41;6067628;29;20431;-85
2023/03/04 04:50:55;;;;;;;10.93;2.05;;;;;;;3.29;100.00;101113.56;6069118;29;20040;-85
2023/03/04 04:53:58;;;;;;;10.35;2.15;;;;;;;3.24;100.00;101107.78;6061765;29;20047;-85
2023/03/04 04:57:00;;;;;;;7.18;2.10;;;;;;;3.24;100.00;101100.13;6069978;29;20044;-85
2023/03/04 05:00:04;;;;;;;9.73;2.50;;;;;;;3.30;100.00;101109.28;6072648;29;20049;-85
2023/03/04 05:03:06;;;;;;;7.07;1.85;;;;;;;3.19;100.00;101096.91;6069091;29;20059;-85
2023/03/04 05:06:09;;;;;;;8.57;1.80;;;;;;;3.24;100.00;101100.13;6086804;29;20147;-85
2023/03/04 05:09:12;;;;;;;6.63;2.08;;;;;;;3.25;100.00;101096.66;6058862;29;20563;-85
2023/03/04 05:12:14;;;;;;;11.32;1.90;;;;;;;3.27;100.00;101099.16;6098814;29;20129;-85
2023/03/04 05:15:17;;;;;;;6.32;1.50;;;;;;;3.27;100.00;101092.31;6073711;29;20052;-85
2023/03/04 05:18:20;;;;;;;10.63;2.25;;;;;;;3.32;100.00;101098.09;6077758;29;20143;-86
2023/03/04 05:21:22;;;;;;;6.10;2.15;;;;;;;3.27;100.00;101089.75;6067845;29;20051;-85
2023/03/04 05:24:23;;;;;;;11.85;2.13;;;;;;;3.32;100.00;101087.03;6078481;29;20040;-85
2023/03/04 05:27:25;;;;;;;4.30;1.52;;;;;;;3.22;100.00;101081.44;6075025;29;20044;-86
2023/03/04 05:30:29;;;;;;;4.18;1.40;;;;;;;3.23;100.00;101072.88;6067435;29;20051;-85
2023/03/04 05:33:33;;;;;;;7.07;1.80;;;;;;;3.21;100.00;101088.28;6067686;29;20451;-86
2023/03/04 05:36:35;;;;;;;7.55;1.90;;;;;;;3.23;100.00;101083.94;6073895;29;20056;-85
2023/03/04 05:39:37;;;;;;;3.38;1.38;;;;;;;3.29;100.00;101076.91;6066250;29;20052;-85
2023/03/04 05:42:39;;;;;;;8.60;1.67;;;;;;;3.33;100.00;101086.97;6068146;29;20720;-86
2023/03/04 05:45:41;;;;;;;4.00;1.38;;;;;;;3.32;100.00;101082.72;6068104;29;20107;-85
2023/03/04 05:48:43;;;;;;;12.45;1.77;;;;;;;3.28;100.00;101088.03;6097388;29;20051;-85
2023/03/04 05:51:45;;;;;;;6.40;1.52;;;;;;;3.20;100.00;101075.53;6088815;29;20510;-85
2023/03/04 05:54:47;;;;;;;10.50;1.83;;;;;;;3.04;100.00;101084.72;6075852;29;20045;-85
2023/03/04 05:57:49;;;;;;;5.90;1.60;;;;;;;2.99;100.00;101085.72;6067872;29;20071;-85
2023/03/04 06:00:51;;;;;;;6.25;1.50;;;;;;;2.98;100.00;101090.88;6078677;29;20115;-86
2023/03/04 06:03:53;;;;;;;6.00;1.63;;;;;;;3.01;100.00;101088.22;6084436;29;20135;-85
2023/03/04 06:06:55;;;;;;;6.72;1.73;;;;;;;3.08;100.00;101089.66;6070763;29;20545;-85
2023/03/04 06:09:57;;;;;;;7.78;1.67;;;;;;;3.18;100.00;101096.09;6086418;29;20491;-85
2023/03/04 06:12:59;;;;;;;8.93;1.42;;;;;;;3.16;100.00;101082.50;6074668;29;20407;-86
2023/03/04 06:16:01;;;;;;;8.38;1.55;;;;;;;3.22;100.00;101087.38;6087438;29;20090;-85
2023/03/04 06:19:03;;;;;;;7.43;2.35;;;;;;;3.31;100.00;101082.81;6069802;29;20131;-85
2023/03/04 06:22:05;;;;;;;7.80;1.63;;;;;;;3.31;100.00;101088.75;6069324;29;20140;-85
2023/03/04 06:25:08;;;;;;;4.03;1.35;;;;;;;3.32;100.00;101092.97;6096454;29;20063;-85
2023/03/04 06:28:09;;;;;;;4.07;1.30;;;;;;;3.39;100.00;101093.56;6077517;29;20084;-86
2023/03/04 06:31:11;;;;;;;9.05;1.58;;;;;;;3.44;100.00;101087.34;6069013;29;20133;-85
2023/03/04 06:34:13;;;;;;;8.63;1.60;;;;;;;3.45;100.00;101099.28;6066895;29;20040;-86
2023/03/04 06:37:15;;;;;;;5.88;1.17;;;;;;;3.44;100.00;101096.78;6068396;29;20515;-85
2023/03/04 06:40:17;;;;;;;7.78;1.92;;;;;;;3.43;100.00;101084.88;6068590;29;20081;-85
2023/03/04 06:43:20;;;;;;;9.63;1.38;;;;;;;3.35;100.00;101084.34;6088865;29;20427;-85
2023/03/04 06:46:23;;;;;;;3.67;1.45;;;;;;;3.40;100.00;101084.97;6068975;29;20045;-86
2023/03/04 06:49:25;;;;;;;8.65;1.83;;;;;;;3.49;100.00;101086.34;6072954;29;20076;-86
2023/03/04 06:52:27;;;;;;;2.78;1.42;;;;;;;3.57;100.00;101097.09;6073730;29;20126;-85
2023/03/04 06:55:29;;;;;;;5.18;1.38;;;;;;;3.66;100.00;101089.06;6069775;29;20487;-85
2023/03/04 06:58:31;;;;;;;8.60;2.22;;;;;;;3.64;100.00;101088.28;6075113;29;20055;-85
2023/03/04 07:01:34;;;;;;;7.03;1.50;;;;;;;3.58;100.00;101084.25;6083679;29;20488;-86
2023/03/04 07:04:35;;;;;;;4.90;1.58;;;;;;;3.76;100.00;101082.66;6096973;29;20048;-85
2023/03/04 07:07:37;;;;;;;4.30;1.60;;;;;;;3.85;100.00;101092.53;6067358;29;20045;-86
2023/03/04 07:10:39;;;;;;;8.80;1.85;;;;;;;3.82;100.00;101091.81;6076499;29;20056;-86
2023/03/04 07:13:46;;;;;;;6.50;1.67;;;;;;;3.85;100.00;101086.53;6072368;29;20044;-86
2023/03/04 07:16:48;;;;;;;4.47;1.63;;;;;;;3.99;100.00;101091.09;6068767;29;20604;-85
2023/03/04 07:19:49;;;;;;;6.43;1.75;;;;;;;3.95;100.00;101102.38;6085647;29;20051;-85
2023/03/04 07:22:51;;;;;;;4.88;1.73;;;;;;;3.85;100.00;101104.47;6073514;29;20376;-85
2023/03/04 07:25:53;;;;;;;4.10;1.92;;;;;;;3.78;100.00;101097.97;6072788;29;20068;-85
2023/03/04 07:28:57;;;;;;;6.18;1.90;;;;;;;3.74;100.00;101102.38;6082008;29;20430;-86
2023/03/04 07:31:59;;;;;;;7.68;1.88;;;;;;;3.79;100.00;101103.00;6082734;29;20048;-85
2023/03/04 07:35:03;;;;;;;6.20;1.80;;;;;;;3.89;100.00;101099.16;6071414;29;20040;-85
2023/03/04 07:38:05;;;;;;;9.90;2.00;;;;;;;4.07;100.00;101107.81;6077777;29;20040;-85
2023/03/04 07:41:07;;;;;;;7.88;2.05;;;;;;;4.14;100.00;101107.56;6075812;29;20048;-86
2023/03/04 07:44:11;;;;;;;7.90;1.73;;;;;;;4.23;100.00;101102.03;6072471;29;20045;-85
2023/03/04 07:47:14;;;;;;;4.82;1.55;;;;;;;4.14;100.00;101108.38;6072442;29;20051;-85
2023/03/04 07:50:16;;;;;;;7.57;1.75;;;;;;;4.17;100.00;101110.81;6068551;29;20415;-85
2023/03/04 07:53:18;;;;;;;3.88;1.58;;;;;;;4.15;100.00;101104.94;6071545;29;20044;-85
2023/03/04 07:56:23;;;;;;;5.18;1.60;;;;;;;4.09;100.00;101106.00;6074238;29;20216;-85
2023/03/04 07:59:25;;;;;;;4.40;1.75;;;;;;;4.19;100.00;101121.81;6077334;29;20551;-85
2023/03/04 08:02:27;;;;;;;6.70;2.17;;;;;;;4.30;100.00;101098.31;6088240;29;20052;-85
2023/03/04 08:05:29;;;;;;;13.85;2.30;;;;;;;4.44;100.00;101090.81;6080579;29;20442;-87
2023/03/04 08:08:31;;;;;;;3.28;1.60;;;;;;;4.56;100.00;101106.56;6080710;29;20087;-86
2023/03/04 08:11:36;;;;;;;5.18;1.80;;;;;;;4.46;100.00;101101.03;6081046;29;20053;-85
2023/03/04 08:14:38;;;;;;;4.53;1.85;;;;;;;4.32;100.00;101099.06;6070243;29;20526;-86
2023/03/04 08:17:40;;;;;;;4.88;1.95;;;;;;;4.26;100.00;101105.28;6089877;29;20411;-85
2023/03/04 08:20:42;;;;;;;6.25;2.22;;;;;;;4.16;100.00;101104.03;6071552;29;20113;-86
2023/03/04 08:23:45;;;;;;;6.78;1.70;;;;;;;4.20;100.00;101100.44;6074906;29;20051;-85
2023/03/04 08:26:49;;;;;;;9.80;3.25;;;;;;;4.21;100.00;101116.63;6073095;29;20120;-84
2023/03/04 08:29:50;;;;;;;8.55;1.75;;;;;;;4.16;100.00;101103.19;6068358;29;20056;-86
2023/03/04 08:32:53;;;;;;;7.65;2.05;;;;;;;4.17;100.00;101102.28;6062995;29;20526;-86
2023/03/04 08:35:55;;;;;;;7.60;2.10;;;;;;;4.25;100.00;101101.06;6067016;29;20186;-85
2023/03/04 08:38:57;;;;;;;5.38;2.47;;;;;;;4.20;100.00;101105.56;6095464;29;20060;-86
2023/03/04 08:41:59;;;;;;;5.72;2.08;;;;;;;4.26;100.00;101102.72;6075715;29;20079;-85
2023/03/04 08:45:01;;;;;;;9.18;1.95;;;;;;;4.28;100.00;101095.81;6066634;29;20592;-86
2023/03/04 08:48:03;;;;;;;7.13;2.20;;;;;;;4.36;100.00;101097.22;6069152;29;20415;-85
2023/03/04 08:51:09;;;;;;;6.65;2.10;;;;;;;4.41;100.00;101101.22;6073845;29;20496;-86
2023/03/04 08:54:11;;;;;;;6.35;1.73;;;;;;;4.53;100.00;101098.13;6070225;29;20164;-86
2023/03/04 08:57:14;;;;;;;6.05;1.95;;;;;;;4.62;100.00;101108.84;6088791;29;20060;-87
2023/03/04 09:00:16;;;;;;;8.18;2.30;;;;;;;4.64;100.00;101102.75;6084078;29;20097;-85
2023/03/04 09:03:19;;;;;;;9.52;2.45;;;;;;;4.60;100.00;101105.56;6068784;29;20055;-85
2023/03/04 09:06:21;;;;;;;5.75;2.10;;;;;;;4.57;100.00;101101.41;6074540;29;20036;-85
2023/03/04 09:09:23;;;;;;;5.82;2.33;;;;;;;4.70;100.00;101107.63;6081680;29;20143;-86
2023/03/04 09:12:25;;;;;;;5.03;1.60;;;;;;;4.86;100.00;101106.94;6074473;29;20679;-86
2023/03/04 09:15:27;;;;;;;5.25;1.67;;;;;;;4.76;100.00;101111.63;6069471;29;20387;-85
2023/03/04 09:18:29;;;;;;;3.72;1.92;;;;;;;4.68;100.00;101119.69;6069093;29;20492;-85
2023/03/04 09:21:31;;;;;;;4.70;2.15;;;;;;;4.52;100.00;101118.69;6071683;29;20041;-86
2023/03/04 09:24:33;;;;;;;4.43;1.98;;;;;;;4.43;100.00;101121.66;6067546;29;20055;-87
2023/03/04 09:27:35;;;;;;;3.67;1.55;;;;;;;4.38;100.00;101126.16;6070266;29;20044;-86
2023/03/04 09:30:38;;;;;;;4.20;1.83;;;;;;;4.42;100.00;101125.13;6075845;29;20108;-87
2023/03/04 09:33:41;;;;;;;5.00;1.70;;;;;;;4.42;100.00;101131.09;6069484;29;20427;-88
2023/03/04 09:36:43;;;;;;;6.00;2.08;;;;;;;4.43;100.00;101131.94;6070883;29;20177;-91
2023/03/04 09:39:45;;;;;;;5.35;2.30;;;;;;;4.33;100.00;101139.19;6085378;29;20045;-89
2023/03/04 09:42:54;;;;;;;4.00;1.92;;;;;;;4.50;100.00;101152.09;6066719;29;20076;-90
2023/03/04 09:46:01;;;;;;;4.40;1.90;;;;;;;4.61;100.00;101127.72;6068617;29;20463;-89
2023/03/04 09:49:03;;;;;;;4.25;2.00;;;;;;;4.75;100.00;101128.75;6084742;29;20595;-90
2023/03/04 09:52:20;;;;;;;5.50;2.00;;;;;;;4.78;100.00;101156.00;6079101;29;20431;-91
2023/03/04 09:55:30;;;;;;;13.95;4.18;;;;;;;4.80;100.00;101127.75;6071173;29;20060;-91
2023/03/04 09:58:59;;;;;;;7.72;2.33;;;;;;;4.93;100.00;101119.41;6065925;29;20465;-90
2023/03/04 10:02:19;;;;;;;6.35;2.88;;;;;;;5.07;100.00;101113.66;6066158;29;20336;-90
2023/03/04 10:05:24;;;;;;;4.73;1.87;;;;;;;4.98;100.00;101111.50;6075346;29;20073;-90
2023/03/04 10:08:41;;;;;;;11.30;2.28;;;;;;;4.81;100.00;101104.56;6070513;29;20400;-89
2023/03/04 10:11:58;;;;;;;9.57;2.25;;;;;;;4.74;100.00;101101.47;6069728;29;20210;-89
2023/03/04 10:15:05;;;;;;;4.32;1.75;;;;;;;4.77;100.00;101130.41;6085399;29;20071;-89
2023/03/04 10:18:18;;;;;;;7.53;2.53;;;;;;;4.87;100.00;101112.00;6080956;29;20049;-88
2023/03/04 10:21:29;;;;;;;10.05;2.00;;;;;;;5.00;100.00;101106.31;6068725;29;20127;-89
2023/03/04 10:24:32;;;;;;;11.13;2.05;;;;;;;5.09;100.00;101104.16;6070361;29;20056;-88
2023/03/04 10:27:34;;;;;;;4.75;1.27;;;;;;;5.19;100.00;101112.22;6067448;29;20571;-87
2023/03/04 10:30:39;;;;;;;12.48;2.03;;;;;;;5.38;100.00;101094.22;6073488;29;20078;-88
2023/03/04 10:33:41;;;;;;;8.88;1.67;;;;;;;5.56;100.00;101087.34;6069045;29;20501;-88
2023/03/04 10:37:05;;;;;;;11.55;2.33;;;;;;;5.69;100.00;101093.56;6078339;29;20436;-87
2023/03/04 10:40:22;;;;;;;6.95;2.13;;;;;;;5.79;100.00;101092.19;6070037;29;20045;-87
2023/03/04 10:43:24;;;;;;;6.75;1.98;;;;;;;5.93;100.00;101093.22;6066415;29;20052;-87
2023/03/04 10:46:26;;;;;;;2.65;1.10;;;;;;;5.97;100.00;101095.59;6068426;29;20036;-88
2023/03/04 10:49:28;;;;;;;11.52;2.30;;;;;;;5.90;100.00;101090.81;6067486;29;20417;-87
2023/03/04 10:52:37;;;;;;;5.00;1.50;;;;;;;5.87;100.00;101084.09;6074508;29;20406;-88
2023/03/04 10:55:44;;;;;;;6.55;1.45;;;;;;;5.85;100.00;101098.75;6068327;29;20049;-88
2023/03/04 10:58:46;;;;;;;6.45;1.45;;;;;;;5.82;100.00;101098.91;6066122;29;20044;-87
2023/03/04 11:01:49;;;;;;;4.53;1.42;;;;;;;5.94;100.00;101093.19;6073210;29;20059;-88
2023/03/04 11:05:06;;;;;;;4.35;1.48;;;;;;;6.15;100.00;101090.44;6073471;29;20044;-88
2023/03/04 11:08:21;;;;;;;6.43;1.38;;;;;;;6.15;100.00;101082.72;6066923;29;20499;-88
2023/03/04 11:11:30;;;;;;;3.17;1.05;;;;;;;5.99;100.00;101086.09;6082731;29;20169;-88
2023/03/04 11:14:50;;;;;;;9.38;2.50;;;;;;;6.09;100.00;101086.44;6080666;29;20131;-88
2023/03/04 11:18:03;;;;;;;4.65;1.88;;;;;;;6.19;100.00;101090.22;6083964;29;20052;-88
2023/03/04 11:21:06;;;;;;;5.32;1.70;;;;;;;6.17;100.00;101080.91;6073545;29;20181;-88
2023/03/04 11:24:13;;;;;;;6.75;2.58;;;;;;;6.25;100.00;101082.16;6066811;29;20072;-87
2023/03/04 11:27:44;;;;;;;10.27;2.58;;;;;;;6.29;100.00;101102.59;6094919;29;20049;-88
2023/03/04 11:30:53;;;;;;;6.57;2.50;;;;;;;6.00;100.00;101089.47;6070229;29;20403;-88
2023/03/04 11:34:13;;;;;;;6.28;1.88;;;;;;;5.87;100.00;101085.84;6066916;29;20048;-87
2023/03/04 11:37:34;;;;;;;8.27;2.42;;;;;;;5.90;100.00;101081.38;6074452;29;20491;-88
2023/03/04 11:40:48;;;;;;;6.00;1.55;;;;;;;5.84;100.00;101071.41;6072993;29;20074;-88
2023/03/04 11:43:50;;;;;;;8.55;1.17;;;;;;;5.84;100.00;101081.69;6075049;29;20052;-89
2023/03/04 11:47:26;;;;;;;4.07;1.30;;;;;;;5.87;100.00;101078.16;6075771;29;20033;-89
2023/03/04 11:50:50;;;;;;;5.68;1.58;;;;;;;5.80;100.00;101062.19;6078428;29;20079;-89
2023/03/04 11:54:15;;;;;;;4.88;1.38;;;;;;;5.76;100.00;101064.09;6071034;29;20056;-88
2023/03/04 11:57:54;;;;;;;4.55;1.48;;;;;;;5.82;100.00;101060.38;6071807;29;20044;-88
2023/03/04 12:01:01;;;;;;;5.22;1.65;;;;;;;6.16;100.00;101051.81;6083986;29;20503;-89
2023/03/04 12:04:25;;;;;;;5.75;1.45;;;;;;;6.50;100.00;101049.19;6073955;29;20127;-89
2023/03/04 12:07:46;;;;;;;7.38;1.65;;;;;;;6.32;100.00;101056.16;6067432;29;20497;-88
2023/03/04 12:10:48;;;;;;;6.15;1.70;;;;;;;6.04;100.00;101048.13;6078454;29;20076;-89
2023/03/04 12:13:49;;;;;;;10.15;2.47;;;;;;;5.85;100.00;101047.38;6076051;29;20048;-86
2023/03/04 12:17:17;;;;;;;6.53;1.75;;;;;;;5.81;100.00;101045.88;6079305;29;20055;-89
2023/03/04 12:20:57;;;;;;;9.18;1.75;;;;;;;5.93;100.00;101046.97;6078856;29;20180;-88
2023/03/04 12:24:25;;;;;;;8.52;1.60;;;;;;;5.95;100.00;101045.22;6061446;29;20049;-88
2023/03/04 12:27:44;;;;;;;9.25;1.95;;;;;;;5.90;100.00;101040.25;6071619;29;20589;-88
2023/03/04 12:31:07;;;;;;;6.07;1.27;;;;;;;5.80;100.00;101042.47;6068899;29;20056;-87
2023/03/04 12:34:28;;;;;;;6.43;1.50;;;;;;;5.87;100.00;101040.44;6068785;29;20061;-87
2023/03/04 12:38:18;;;;;;;3.80;1.10;;;;;;;5.94;100.00;101036.69;6069313;29;20614;-88
2023/03/04 12:41:31;;;;;;;8.15;1.25;;;;;;;5.93;100.00;101034.13;5975413;29;20100;-88
2023/03/04 12:44:57;;;;;;;9.30;1.67;;;;;;;5.86;100.00;101025.09;5971584;29;20193;-88
2023/03/04 12:48:18;;;;;;;9.05;1.52;;;;;;;5.87;100.00;101024.19;5961189;29;20051;-88
2023/03/04 12:51:43;;;;;;;9.75;1.30;;;;;;;6.09;100.00;101027.34;5980740;29;20141;-88
2023/03/04 12:54:50;;;;;;;5.82;1.80;;;;;;;6.40;100.00;101033.44;5979591;29;20191;-87
2023/03/04 12:57:56;;;;;;;5.60;1.35;;;;;;;6.54;100.00;100999.28;5974240;29;20695;-88
2023/03/04 13:01:24;;;;;;;6.43;1.48;;;;;;;6.69;100.00;101001.00;5963362;29;20473;-88
2023/03/04 13:04:37;;;;;;;6.43;1.30;;;;;;;6.84;100.00;101014.75;5972794;29;20532;-91
2023/03/04 13:08:08;;;;;;;6.43;1.25;;;;;;;6.73;100.00;101014.50;5958554;29;20050;-90
2023/03/04 13:11:24;;;;;;;4.25;1.15;;;;;;;6.59;100.00;101028.97;5915965;29;20063;-89
2023/03/04 13:14:28;;;;;;;2.05;1.17;;;;;;;6.49;100.00;100993.53;5928364;29;20063;-89
2023/03/04 13:17:42;;;;;;;3.72;1.25;;;;;;;6.47;100.00;101002.16;5951870;29;20456;-88
2023/03/04 13:20:45;;;;;;;6.20;1.77;;;;;;;6.33;100.00;101006.38;6012743;29;20088;-88
2023/03/04 13:23:47;;;;;;;4.53;1.05;;;;;;;6.14;100.00;101017.66;6020703;29;20056;-88
2023/03/04 13:26:53;;;;;;;3.90;1.05;;;;;;;6.10;100.00;101021.28;6029167;29;20198;-89
2023/03/04 13:29:55;;;;;;;7.45;1.05;;;;;;;6.06;100.00;101003.53;6021174;29;20126;-88
2023/03/04 13:33:20;;;;;;;7.72;1.85;;;;;;;6.07;100.00;101006.03;6001048;29;20058;-89
2023/03/04 13:36:55;;;;;;;6.05;1.35;;;;;;;6.15;100.00;101001.31;6017517;29;20725;-90
2023/03/04 13:40:20;;;;;;;9.80;1.27;;;;;;;6.20;100.00;101006.22;6021288;29;20185;-89
2023/03/04 13:43:25;;;;;;;4.35;1.60;;;;;;;6.12;100.00;101005.78;6015537;29;20052;-88
2023/03/04 13:46:28;;;;;;;8.32;1.70;;;;;;;6.18;100.00;101002.88;6012104;29;20045;-88
2023/03/04 13:49:30;;;;;;;7.30;1.70;;;;;;;6.28;100.00;101004.06;6076273;29;20121;-88
2023/03/04 13:52:43;;;;;;;7.97;1.77;;;;;;;6.33;100.00;100994.34;6075426;29;20068;-89
2023/03/04 13:56:10;;;;;;;7.18;2.10;;;;;;;6.25;100.00;101004.22;6091431;29;20044;-88
2023/03/04 13:59:30;;;;;;;6.30;1.73;;;;;;;6.26;100.00;101000.75;6072308;29;20052;-88
2023/03/04 14:02:33;;;;;;;4.40;1.35;;;;;;;6.33;100.00;101002.06;6078559;29;20056;-88
2023/03/04 14:05:36;;;;;;;6.47;1.75;;;;;;;6.34;100.00;100993.44;6079795;29;20425;-89
2023/03/04 14:08:38;;;;;;;8.13;1.70;;;;;;;6.32;100.00;100992.69;6073878;29;20040;-88
2023/03/04 14:11:42;;;;;;;4.57;1.52;;;;;;;6.31;100.00;100995.34;6076147;29;20056;-89
2023/03/04 14:14:53;;;;;;;6.97;1.40;;;;;;;6.17;100.00;100996.09;6074851;29;20049;-88
2023/03/04 14:17:58;;;;;;;5.82;1.70;;;;;;;6.19;100.00;101012.28;6075471;29;20040;-88
2023/03/04 14:21:00;;;;;;;9.85;1.63;;;;;;;6.14;100.00;100993.69;6074011;29;20057;-89